メインページ
METAR-TAF:

METAR-TAF

空港 :

仁川国際空港, 大韓民国

緯度: 37-28N, 経度: 126-27E, 海抜: 7m

現時点の気象観測

当レポートは22分前の07:00(UTC)に作成
南西の風 13kt
気温 30°C
湿度 49%
気圧 1002 hPa
視程10km以上
高度4000ftの雲は散在している
高度8000ftの千切れ雲あり
高度18000ftの千切れ雲あり

METAR: RKSI 200700Z 22013KT 9999 SCT040 BKN080 BKN180 30/18 Q1002 NOSIG

時間: 16:22 (07:22 UTC)

予報

当レポートは2時間22分前の05:00(UTC)に作成
予報は20日の 06時(UTC)から 21日の 12時(UTC)まで有効
の風 13kt
視程: 8000m
高度1000ftの雲はほとんどない
高度2500ftの千切れ雲あり
高度15000ftの千切れ雲あり
20日の 11時(UTC)から 20日の 12時(UTC)まで徐々に
の風 15kt、最大25ktの突風を伴う
20日の 15時(UTC)から 20日の 24時(UTC)まで一時的に
南/南西の風 17kt、最大35ktの突風を伴う
視程: 3500m
にわか雨
21日の 02時(UTC)から 21日の 03時(UTC)まで徐々に
西/南西の風 12kt
高度3000ftの雲は散在している
21日の 10時(UTC)から 21日の 11時(UTC)まで徐々に
北西の風 10kt
視程: 4200m

TAF: RKSI 200500Z 2006/2112 19013KT 8000 FEW010 BKN025 BKN150 TN26/2021Z TX30/2106Z BECMG 2011/2012 19015G25KT TEMPO 2015/2024 20017G35KT 3500 SHRA BECMG 2102/2103 25012KT SCT030 BECMG 2110/2111 31010KT 4200 BR

4,000以上の空港の気象観測と天気予報(METAR報とTAF報)

利用可能な観測所は地図上に黄色い丸と赤い丸で示す。

丸の上にカーソルを重ねると観測所名を参照できる。

次にクリックすると気象観測と天気予報を参照できる。

マップの切り替え:黒色「×」印の緑ボタンをクリックして拡大、「-」印の緑ボタンをクリックして縮小、緑色の三角印をクリックして隣りの地図に切り替え


METAR-TAF: